Riverdance — C6CG3 — position and weather

sailwx.info

Track history (hours):
 
Tides and Currents Weather Stations Pressure Air Temp Water Temp Dewpoint Dewpoint Depression Visibility Wind Speed Wind Dir Waves Ship Positions

Riverdance

Operator: Crescent Marine Services Ltd

Last reported at 2019-Feb-23 16:19 UTC. Time now 2019-Feb-23 16:59 UTC.
Position N 53°24' E 003°12'.

Length 72 m; draft 5.8 m.

Type: Other ship. MMSI: 311000463.

Date/timePositionNaut miles runAvg speedWind from/ knotsBaromVisibWave heightAir tempDewpointWater temp
2019-Feb-23 16:19N 53°24' E 003°12'412.0
2019-Feb-23 15:58N 53°20' E 003°15'1011.4
2019-Feb-23 15:06N 53°11' E 003°23'411.7
2019-Feb-23 14:45N 53°09' E 003°29'411.1
2019-Feb-23 14:22N 53°07' E 003°35'810.7
2019-Feb-23 13:39N 53°00' E 003°40'210.5
2019-Feb-23 13:30N 52°59' E 003°41'510.3
2019-Feb-23 13:00N 52°54' E 003°44'610.4
2019-Feb-23 12:25N 52°49' E 003°51'410.3
2019-Feb-23 12:00N 52°46' E 003°55'510.1
2019-Feb-23 11:30N 52°42' E 003°60'5 9.8
2019-Feb-23 11:00N 52°37' E 004°04'5 9.8
2019-Feb-23 10:30N 52°33' E 004°08'510.3
2019-Feb-23 10:00N 52°31' E 004°15'510.1
2019-Feb-23 09:30N 52°29' E 004°23'510.3
2019-Feb-23 09:01N 52°28' E 004°31'3 5.5
2019-Feb-23 08:31N 52°28' E 004°36'0 0.4
2019-Feb-23 08:01N 52°28' E 004°36'2 3.7
2019-Feb-23 07:30N 52°28' E 004°39'1 1.4
2019-Feb-23 06:58N 52°28' E 004°40'0 0.0
2019-Feb-23 06:28N 52°28' E 004°40'0 0.0
2019-Feb-23 05:58N 52°28' E 004°40'0 0.0
2019-Feb-23 05:28N 52°28' E 004°40'0 0.0
2019-Feb-23 04:58N 52°28' E 004°40'0 0.0
2019-Feb-23 04:28N 52°28' E 004°40'0 0.0
2019-Feb-23 03:58N 52°28' E 004°40'0 0.0
2019-Feb-23 03:28N 52°28' E 004°40'0 0.0
2019-Feb-23 02:58N 52°28' E 004°40'0 0.0
2019-Feb-23 02:28N 52°28' E 004°40'0 0.0
2019-Feb-23 01:58N 52°28' E 004°40'0 0.0
2019-Feb-23 01:28N 52°28' E 004°40'0 0.0
2019-Feb-23 00:58N 52°28' E 004°40'0 0.0
2019-Feb-23 00:28N 52°28' E 004°40'0 0.0
2019-Feb-22 23:58N 52°28' E 004°40'0 0.0
2019-Feb-22 23:28N 52°28' E 004°40'0 0.0
2019-Feb-22 22:58N 52°28' E 004°40'0 0.0
2019-Feb-22 22:28N 52°28' E 004°40'0 0.0
2019-Feb-22 21:58N 52°28' E 004°40'0 0.0
2019-Feb-22 21:28N 52°28' E 004°40'0 0.0
2019-Feb-22 20:58N 52°28' E 004°40'0 0.0
2019-Feb-22 20:28N 52°28' E 004°40'0 0.0
2019-Feb-22 19:58N 52°28' E 004°40'0 0.0
2019-Feb-22 19:28N 52°28' E 004°40'0 0.0
2019-Feb-22 18:58N 52°28' E 004°40'0 0.0
2019-Feb-22 18:28N 52°28' E 004°40'0 0.0
2019-Feb-22 17:58N 52°28' E 004°40'0 0.0
2019-Feb-22 17:28N 52°28' E 004°40'0 0.0
2019-Feb-22 16:58N 52°28' E 004°40'0 0.0
2019-Feb-22 16:28N 52°28' E 004°40'0 0.0
2019-Feb-22 15:58N 52°28' E 004°40'0 0.0
2019-Feb-22 15:28N 52°28' E 004°40'0 0.0
2019-Feb-22 14:58N 52°28' E 004°40'0 0.0
2019-Feb-22 14:28N 52°28' E 004°40'0 0.0
2019-Feb-22 13:58N 52°28' E 004°40'0 0.0
2019-Feb-22 13:28N 52°28' E 004°40'0 0.0
2019-Feb-22 12:58N 52°28' E 004°40'0 0.0
2019-Feb-22 12:28N 52°28' E 004°40'0 0.0
2019-Feb-22 11:55N 52°28' E 004°40'0 0.0
2019-Feb-22 11:28N 52°28' E 004°40'0 0.0
2019-Feb-22 10:58N 52°28' E 004°40'0 0.0
2019-Feb-22 10:28N 52°28' E 004°40'0 0.0
2019-Feb-22 09:58N 52°28' E 004°40'0 0.0
2019-Feb-22 09:28N 52°28' E 004°40'0 0.0
2019-Feb-22 08:58N 52°28' E 004°40'0 0.0
2019-Feb-22 08:28N 52°28' E 004°40'0 0.0
2019-Feb-22 07:58N 52°28' E 004°40'0 0.0
2019-Feb-22 07:28N 52°28' E 004°40'0 0.0
2019-Feb-22 06:58N 52°28' E 004°40'0 0.0
2019-Feb-22 06:28N 52°28' E 004°40'0 0.0
2019-Feb-22 05:58N 52°28' E 004°40'0 0.0
2019-Feb-22 05:28N 52°28' E 004°40'0 0.0
2019-Feb-22 04:58N 52°28' E 004°40'0 0.0
2019-Feb-22 04:28N 52°28' E 004°40'0 0.0
2019-Feb-22 03:58N 52°28' E 004°40'0 0.0
2019-Feb-22 03:28N 52°28' E 004°40'0 0.0
2019-Feb-22 02:58N 52°28' E 004°40'0 0.0
2019-Feb-22 02:28N 52°28' E 004°40'0 0.0
2019-Feb-22 01:58N 52°28' E 004°40'0 0.0
2019-Feb-22 01:28N 52°28' E 004°40'0 0.0
2019-Feb-22 00:58N 52°28' E 004°40'0 0.0
2019-Feb-22 00:28N 52°28' E 004°40'0 0.0
2019-Feb-21 23:58N 52°28' E 004°40'0 0.0
2019-Feb-21 23:25N 52°28' E 004°40'0 0.0
2019-Feb-21 22:58N 52°28' E 004°40'0 0.0
2019-Feb-21 22:28N 52°28' E 004°40'0 0.0
2019-Feb-21 21:58N 52°28' E 004°40'0 0.0
2019-Feb-21 21:28N 52°28' E 004°40'0 0.0
2019-Feb-21 20:58N 52°28' E 004°40'0 0.0
2019-Feb-21 20:28N 52°28' E 004°40'0 0.0
2019-Feb-21 19:55N 52°28' E 004°40'0 0.0
2019-Feb-21 19:28N 52°28' E 004°40'0 0.0
2019-Feb-21 18:58N 52°28' E 004°40'0 0.0
2019-Feb-21 18:28N 52°28' E 004°40'0 0.0
2019-Feb-21 17:58N 52°28' E 004°40'0 0.0
2019-Feb-21 17:28N 52°28' E 004°40'0 0.0
2019-Feb-21 16:58N 52°28' E 004°40'0 0.0
2019-Feb-21 16:28N 52°28' E 004°40'0 0.0
2019-Feb-21 15:55N 52°28' E 004°40'0 0.0
2019-Feb-21 15:29N 52°28' E 004°40'0 0.0
2019-Feb-21 14:58N 52°28' E 004°40'0 0.0
2019-Feb-21 14:25N 52°28' E 004°40'0 0.0
2019-Feb-21 13:58N 52°28' E 004°40'0 0.0
2019-Feb-21 13:28N 52°28' E 004°40'0 0.0
2019-Feb-21 12:58N 52°28' E 004°40'0 0.0
2019-Feb-21 12:28N 52°28' E 004°40'0 0.0
2019-Feb-21 11:58N 52°28' E 004°40'0 0.0
2019-Feb-21 11:28N 52°28' E 004°40'0 0.0
2019-Feb-21 10:58N 52°28' E 004°40'0 0.0
2019-Feb-21 10:28N 52°28' E 004°40'0 0.0
2019-Feb-21 09:58N 52°28' E 004°40'0 0.0
2019-Feb-21 09:28N 52°28' E 004°40'0 0.0
2019-Feb-21 08:58N 52°28' E 004°40'0 0.0
2019-Feb-21 08:28N 52°28' E 004°40'0 0.0
2019-Feb-21 07:59N 52°28' E 004°40'0 0.0
2019-Feb-21 07:25N 52°28' E 004°40'0 0.0
2019-Feb-21 06:58N 52°28' E 004°40'0 0.0
2019-Feb-21 06:28N 52°28' E 004°40'0 0.0
2019-Feb-21 05:58N 52°28' E 004°40'0 0.0
2019-Feb-21 05:28N 52°28' E 004°40'0 0.0
2019-Feb-21 04:58N 52°28' E 004°40'0 0.0
2019-Feb-21 04:28N 52°28' E 004°40'0 0.0
2019-Feb-21 03:55N 52°28' E 004°40'0 0.0
2019-Feb-21 03:28N 52°28' E 004°40'0 0.0
2019-Feb-21 02:58N 52°28' E 004°40'0 0.0
2019-Feb-21 02:28N 52°28' E 004°40'0 0.0
2019-Feb-21 01:58N 52°28' E 004°40'0 0.0
2019-Feb-21 01:22N 52°28' E 004°40'0 0.0
2019-Feb-21 00:58N 52°28' E 004°40'0 0.0
2019-Feb-21 00:28N 52°28' E 004°40'0 0.0
2019-Feb-20 23:58N 52°28' E 004°40'0 0.0
2019-Feb-20 23:28N 52°28' E 004°40'0 0.0
2019-Feb-20 22:58N 52°28' E 004°40'0 0.0
2019-Feb-20 22:28N 52°28' E 004°40'0 0.0
2019-Feb-20 21:58N 52°28' E 004°40'0 0.0
2019-Feb-20 21:28N 52°28' E 004°40'0 0.0
2019-Feb-20 20:58N 52°28' E 004°40'0 0.0
2019-Feb-20 20:28N 52°28' E 004°40'0 0.0
2019-Feb-20 19:58N 52°28' E 004°40'0 0.0
2019-Feb-20 19:28N 52°28' E 004°40'0 0.0
2019-Feb-20 18:58N 52°28' E 004°40'0 0.0
2019-Feb-20 18:25N 52°28' E 004°40'0 0.0
2019-Feb-20 17:55N 52°28' E 004°40'0 0.0
2019-Feb-20 17:28N 52°28' E 004°40'0 0.0
2019-Feb-20 16:58N 52°28' E 004°40'0 0.0
2019-Feb-20 16:28N 52°28' E 004°40'0 0.0
2019-Feb-20 15:59N 52°28' E 004°40'0 0.0
2019-Feb-20 15:28N 52°28' E 004°40'0 0.0
2019-Feb-20 14:58N 52°28' E 004°40'0 0.0
2019-Feb-20 14:22N 52°28' E 004°40'0 0.0
2019-Feb-20 13:58N 52°28' E 004°40'0 0.0
2019-Feb-20 13:25N 52°28' E 004°40'0 0.0
2019-Feb-20 12:58N 52°28' E 004°40'0 0.0
2019-Feb-20 12:28N 52°28' E 004°40'0 0.0
2019-Feb-20 11:58N 52°28' E 004°40'0 0.0
2019-Feb-20 11:28N 52°28' E 004°40'0 0.0
2019-Feb-20 10:59N 52°28' E 004°40'0 0.0
2019-Feb-20 10:28N 52°28' E 004°40'0 0.0
2019-Feb-20 09:58N 52°28' E 004°40'0 0.0
2019-Feb-20 09:28N 52°28' E 004°40'0 0.0
2019-Feb-20 08:58N 52°28' E 004°40'0 0.0
2019-Feb-20 08:28N 52°28' E 004°40'0 0.0
2019-Feb-20 07:58N 52°28' E 004°40'0 0.0
2019-Feb-20 07:28N 52°28' E 004°40'0 0.0
2019-Feb-20 06:58N 52°28' E 004°40'0 0.0
2019-Feb-20 06:28N 52°28' E 004°40'0 0.0
2019-Feb-20 05:55N 52°28' E 004°40'0 0.0
2019-Feb-20 05:28N 52°28' E 004°40'0 0.0
2019-Feb-20 04:58N 52°28' E 004°40'0 0.0
2019-Feb-20 04:28N 52°28' E 004°40'0 0.0
2019-Feb-20 03:58N 52°28' E 004°40'0 0.0
2019-Feb-20 02:58N 52°28' E 004°40'0 0.0
2019-Feb-20 02:28N 52°28' E 004°40'0 0.0
2019-Feb-20 01:58N 52°28' E 004°40'0 0.0
2019-Feb-20 01:28N 52°28' E 004°40'0 0.0
2019-Feb-20 00:58N 52°28' E 004°40'0 0.0
2019-Feb-20 00:28N 52°28' E 004°40'0 0.0
2019-Feb-19 23:58N 52°28' E 004°40'0 0.0
2019-Feb-19 23:28N 52°28' E 004°40'0 0.0
2019-Feb-19 22:58N 52°28' E 004°40'0 0.0
2019-Feb-19 22:28N 52°28' E 004°40'0 0.0
2019-Feb-19 21:58N 52°28' E 004°40'0 0.0
2019-Feb-19 21:28N 52°28' E 004°40'0 0.0
2019-Feb-19 20:58N 52°28' E 004°40'0 0.0
2019-Feb-19 20:28N 52°28' E 004°40'0 0.0
2019-Feb-19 19:58N 52°28' E 004°40'0 0.0
2019-Feb-19 19:28N 52°28' E 004°40'0 0.0
2019-Feb-19 18:58N 52°28' E 004°40'0 0.0
2019-Feb-19 18:28N 52°28' E 004°40'0 0.0
2019-Feb-19 17:58N 52°28' E 004°40'0 0.0
2019-Feb-19 17:28N 52°28' E 004°40'0 0.0
2019-Feb-19 16:58N 52°28' E 004°40'0 0.0
2019-Feb-19 16:28N 52°28' E 004°40'0 0.0
2019-Feb-19 15:58N 52°28' E 004°40'0 0.0
2019-Feb-19 15:28N 52°28' E 004°40'0 0.0
2019-Feb-19 14:58N 52°28' E 004°40'0 0.0
2019-Feb-19 14:28N 52°28' E 004°40'0 0.0
2019-Feb-19 13:52N 52°28' E 004°40'0 0.0
2019-Feb-19 13:28N 52°28' E 004°40'0 0.0
2019-Feb-19 12:58N 52°28' E 004°40'0 0.0
2019-Feb-19 12:28N 52°28' E 004°40'0 0.0
2019-Feb-19 11:58N 52°28' E 004°40'0 0.0
2019-Feb-19 11:28N 52°28' E 004°40'0 0.0
2019-Feb-19 10:52N 52°28' E 004°40'0 0.0
2019-Feb-19 10:28N 52°28' E 004°40'0 0.0
2019-Feb-19 09:58N 52°28' E 004°40'0 0.0
2019-Feb-19 09:28N 52°28' E 004°40'0 0.0
2019-Feb-19 08:58N 52°28' E 004°40'0 0.0
2019-Feb-19 08:28N 52°28' E 004°40'0 0.0
2019-Feb-19 07:58N 52°28' E 004°40'0 0.0
2019-Feb-19 07:25N 52°28' E 004°40'0 0.0
2019-Feb-19 06:58N 52°28' E 004°40'0 0.0
2019-Feb-19 06:28N 52°28' E 004°40'0 0.0
2019-Feb-19 05:58N 52°28' E 004°40'0 0.0
2019-Feb-19 05:28N 52°28' E 004°40'0 0.0
2019-Feb-19 04:58N 52°28' E 004°40'0 0.0
2019-Feb-19 04:28N 52°28' E 004°40'0 0.0
2019-Feb-19 03:58N 52°28' E 004°40'0 0.0
2019-Feb-19 03:28N 52°28' E 004°40'0 0.0
2019-Feb-19 02:58N 52°28' E 004°40'0 0.0
2019-Feb-19 02:28N 52°28' E 004°40'0 0.0
2019-Feb-19 01:58N 52°28' E 004°40'0 0.0
2019-Feb-19 01:25N 52°28' E 004°40'0 0.0
2019-Feb-19 00:58N 52°28' E 004°40'0 0.0
2019-Feb-19 00:28N 52°28' E 004°40'0 0.0
2019-Feb-18 23:58N 52°28' E 004°40'0 0.0
2019-Feb-18 23:28N 52°28' E 004°40'0 0.0
2019-Feb-18 22:58N 52°28' E 004°40'0 0.0
2019-Feb-18 22:28N 52°28' E 004°40'0 0.0
2019-Feb-18 21:55N 52°28' E 004°40'0 0.0
2019-Feb-18 21:28N 52°28' E 004°40'0 0.0
2019-Feb-18 20:58N 52°28' E 004°40'0 0.0
2019-Feb-18 20:28N 52°28' E 004°40'0 0.0
2019-Feb-18 19:58N 52°28' E 004°40'0 0.0
2019-Feb-18 19:28N 52°28' E 004°40'0 0.0
2019-Feb-18 18:55N 52°28' E 004°40'0 0.0
2019-Feb-18 18:28N 52°28' E 004°40'0 0.0
2019-Feb-18 17:55N 52°28' E 004°40'0 0.0
2019-Feb-18 17:25N 52°28' E 004°40'0 0.0
2019-Feb-18 16:58N 52°28' E 004°40'0 0.0
2019-Feb-18 16:28N 52°28' E 004°40'0 0.0
2019-Feb-18 15:58N 52°28' E 004°40'0 0.0
2019-Feb-18 15:28N 52°28' E 004°40'0 0.0
2019-Feb-18 14:58N 52°28' E 004°40'0 0.0
2019-Feb-18 14:28N 52°28' E 004°40'0 0.0
2019-Feb-18 13:58N 52°28' E 004°40'0 0.0
2019-Feb-18 13:28N 52°28' E 004°40'0 0.0
2019-Feb-18 12:58N 52°28' E 004°40'0 0.0
2019-Feb-18 12:25N 52°28' E 004°40'0 0.0
2019-Feb-18 11:58N 52°28' E 004°40'0 0.0
2019-Feb-18 11:28N 52°28' E 004°40'0 0.0
2019-Feb-18 10:58N 52°28' E 004°40'0 0.0
2019-Feb-18 10:28N 52°28' E 004°40'0 0.0
2019-Feb-18 09:55N 52°28' E 004°40'0 0.0
2019-Feb-18 09:28N 52°28' E 004°40'0 0.0
2019-Feb-18 08:58N 52°28' E 004°40'0 0.0
2019-Feb-18 08:25N 52°28' E 004°40'0 0.0
2019-Feb-18 07:58N 52°28' E 004°40'0 0.0
2019-Feb-18 07:25N 52°28' E 004°40'0 0.0
2019-Feb-18 06:55N 52°28' E 004°40'0 0.0
2019-Feb-18 06:28N 52°28' E 004°40'0 0.0
2019-Feb-18 05:58N 52°28' E 004°40'0 0.0
2019-Feb-18 05:28N 52°28' E 004°40'0 0.0
2019-Feb-18 04:58N 52°28' E 004°40'0 0.0
2019-Feb-18 04:28N 52°28' E 004°40'0 0.0
2019-Feb-18 03:58N 52°28' E 004°40'0 0.0
2019-Feb-18 03:28N 52°28' E 004°40'0 0.0
2019-Feb-18 02:58N 52°28' E 004°40'0 0.0
2019-Feb-18 02:28N 52°28' E 004°40'0 0.0
2019-Feb-18 01:58N 52°28' E 004°40'0 0.0
2019-Feb-18 01:28N 52°28' E 004°40'0 0.0
2019-Feb-18 00:58N 52°28' E 004°40'0 0.0
2019-Feb-18 00:28N 52°28' E 004°40'0 0.0
2019-Feb-17 23:58N 52°28' E 004°40'0 0.0
2019-Feb-17 23:28N 52°28' E 004°40'0 0.0
2019-Feb-17 22:58N 52°28' E 004°40'0 0.0
2019-Feb-17 22:28N 52°28' E 004°40'0 0.0
2019-Feb-17 21:58N 52°28' E 004°40'0 0.0
2019-Feb-17 21:28N 52°28' E 004°40'0 0.0
2019-Feb-17 20:58N 52°28' E 004°40'0 0.0
2019-Feb-17 20:28N 52°28' E 004°40'0 0.0
2019-Feb-17 19:58N 52°28' E 004°40'0 0.0
2019-Feb-17 19:28N 52°28' E 004°40'0 0.0
2019-Feb-17 18:58N 52°28' E 004°40'0 0.0
2019-Feb-17 18:28N 52°28' E 004°40'0 0.0
2019-Feb-17 17:58N 52°28' E 004°40'0 0.0
2019-Feb-17 17:28N 52°28' E 004°40'0 0.0
2019-Feb-17 16:58N 52°28' E 004°40'0 0.0
2019-Feb-17 16:28N 52°28' E 004°40'0 0.0
2019-Feb-17 15:58N 52°28' E 004°40'0 0.0
2019-Feb-17 15:28N 52°28' E 004°40'0 0.0
2019-Feb-17 14:58N 52°28' E 004°40'0 0.0
2019-Feb-17 14:28N 52°28' E 004°40'0 0.0
2019-Feb-17 13:58N 52°28' E 004°40'0 0.0
2019-Feb-17 13:28N 52°28' E 004°40'0 0.0
2019-Feb-17 12:58N 52°28' E 004°40'0 0.0
2019-Feb-17 12:28N 52°28' E 004°40'0 0.0
2019-Feb-17 11:58N 52°28' E 004°40'0 0.0
2019-Feb-17 11:28N 52°28' E 004°40'0 0.0
2019-Feb-17 10:58N 52°28' E 004°40'0 0.0
2019-Feb-17 10:25N 52°28' E 004°40'0 0.0
2019-Feb-17 09:58N 52°28' E 004°40'0 0.0
2019-Feb-17 09:28N 52°28' E 004°40'0 0.0
2019-Feb-17 08:58N 52°28' E 004°40'0 0.0
2019-Feb-17 08:25N 52°28' E 004°40'0 0.0
2019-Feb-17 07:58N 52°28' E 004°40'0 0.0
2019-Feb-17 07:28N 52°28' E 004°40'0 0.0
2019-Feb-17 06:58N 52°28' E 004°40'0 0.0
2019-Feb-17 06:28N 52°28' E 004°40'0 0.0
2019-Feb-17 05:58N 52°28' E 004°40'0 0.0
2019-Feb-17 05:28N 52°28' E 004°40'0 0.0
2019-Feb-17 04:58N 52°28' E 004°40'0 0.0
2019-Feb-17 04:28N 52°28' E 004°40'0 0.0
2019-Feb-17 03:58N 52°28' E 004°40'0 0.0
2019-Feb-17 03:28N 52°28' E 004°40'0 0.0
2019-Feb-17 02:58N 52°28' E 004°40'0 0.0
2019-Feb-17 02:28N 52°28' E 004°40'0 0.0
2019-Feb-17 01:58N 52°28' E 004°40'0 0.0
2019-Feb-17 01:28N 52°28' E 004°40'0 0.0
2019-Feb-17 00:58N 52°28' E 004°40'0 0.0
2019-Feb-17 00:28N 52°28' E 004°40'0 0.0
2019-Feb-16 23:58N 52°28' E 004°40'0 0.0
2019-Feb-16 23:28N 52°28' E 004°40'0 0.0
2019-Feb-16 22:58N 52°28' E 004°40'0 0.0
2019-Feb-16 22:28N 52°28' E 004°40'0 0.0
2019-Feb-16 21:58N 52°28' E 004°40'0 0.0
2019-Feb-16 21:28N 52°28' E 004°40'0 0.0
2019-Feb-16 20:58N 52°28' E 004°40'0 0.0
2019-Feb-16 20:28N 52°28' E 004°40'0 0.0
2019-Feb-16 19:58N 52°28' E 004°40'0 0.0
2019-Feb-16 19:28N 52°28' E 004°40'0 0.0
2019-Feb-16 18:58N 52°28' E 004°40'0 0.0
2019-Feb-16 18:28N 52°28' E 004°40'0 0.0
2019-Feb-16 17:58N 52°28' E 004°40'0 0.0
2019-Feb-16 17:25N 52°28' E 004°40'0 0.0
2019-Feb-16 16:58N 52°28' E 004°40'0 0.0
2019-Feb-16 16:28N 52°28' E 004°40'0 0.0
2019-Feb-16 15:58N 52°28' E 004°40'0 0.0
2019-Feb-16 15:28N 52°28' E 004°40'0 0.0
2019-Feb-16 14:58N 52°28' E 004°40'0 0.0
2019-Feb-16 14:28N 52°28' E 004°40'0 0.0
2019-Feb-16 13:55N 52°28' E 004°40'0 0.0
2019-Feb-16 13:28N 52°28' E 004°40'0 0.0
2019-Feb-16 12:58N 52°28' E 004°40'0 0.0
2019-Feb-16 12:28N 52°28' E 004°40'0 0.0
2019-Feb-16 11:58N 52°28' E 004°40'0 0.0
2019-Feb-16 11:28N 52°28' E 004°40'0 0.0
2019-Feb-16 10:58N 52°28' E 004°40'0 0.0
2019-Feb-16 10:28N 52°28' E 004°40'0 0.0
2019-Feb-16 09:58N 52°28' E 004°40'0 0.0
2019-Feb-16 09:28N 52°28' E 004°40'0 0.0
2019-Feb-16 08:58N 52°28' E 004°40'0 0.0
2019-Feb-16 08:28N 52°28' E 004°40'0 0.0
2019-Feb-16 07:58N 52°28' E 004°40'0 0.0
2019-Feb-16 07:28N 52°28' E 004°40'0 0.0
2019-Feb-16 06:58N 52°28' E 004°40'0 0.0
2019-Feb-16 06:25N 52°28' E 004°40'0 0.0
2019-Feb-16 05:52N 52°28' E 004°40'0 0.0
2019-Feb-16 05:28N 52°28' E 004°40'0 0.0
2019-Feb-16 04:58N 52°28' E 004°40'0 0.0
2019-Feb-16 04:28N 52°28' E 004°40'0 0.0
2019-Feb-16 03:58N 52°28' E 004°40'0 0.0
2019-Feb-16 03:28N 52°28' E 004°40'0 0.0
2019-Feb-16 02:58N 52°28' E 004°40'0 0.0
2019-Feb-16 02:28N 52°28' E 004°40'0 0.0
2019-Feb-16 01:58N 52°28' E 004°40'0 0.0
2019-Feb-16 01:28N 52°28' E 004°40'0 0.0
2019-Feb-16 00:58N 52°28' E 004°40'0 0.0
2019-Feb-16 00:28N 52°28' E 004°40'0 0.0
2019-Feb-15 23:58N 52°28' E 004°40'0 0.0
2019-Feb-15 23:28N 52°28' E 004°40'0 0.0
2019-Feb-15 22:58N 52°28' E 004°40'0 0.0
2019-Feb-15 22:28N 52°28' E 004°40'0 0.0
2019-Feb-15 21:58N 52°28' E 004°40'0 0.0
2019-Feb-15 21:28N 52°28' E 004°40'0 0.0
2019-Feb-15 20:58N 52°28' E 004°40'0 0.0
2019-Feb-15 20:25N 52°28' E 004°40'0 0.0
2019-Feb-15 19:58N 52°28' E 004°40'0 0.0
2019-Feb-15 19:28N 52°28' E 004°40'0 0.0
2019-Feb-15 18:58N 52°28' E 004°40'0 0.0
2019-Feb-15 18:28N 52°28' E 004°40'0 0.0
2019-Feb-15 17:58N 52°28' E 004°40'0 0.0
2019-Feb-15 17:28N 52°28' E 004°40'0 0.0
2019-Feb-15 16:58N 52°28' E 004°40'0 0.0
2019-Feb-15 16:28N 52°28' E 004°40'0 0.0
2019-Feb-15 15:58N 52°28' E 004°40'0 0.0
2019-Feb-15 15:28N 52°28' E 004°40'0 0.0
2019-Feb-15 14:58N 52°28' E 004°40'0 0.0
2019-Feb-15 14:28N 52°28' E 004°40'0 0.0
2019-Feb-15 13:58N 52°28' E 004°40'0 0.0
2019-Feb-15 13:25N 52°28' E 004°40'0 0.0
2019-Feb-15 12:58N 52°28' E 004°40'0 0.0
2019-Feb-15 12:28N 52°28' E 004°40'0 0.0
2019-Feb-15 11:58N 52°28' E 004°40'0 0.0
2019-Feb-15 11:25N 52°28' E 004°40'0 0.0
2019-Feb-15 10:58N 52°28' E 004°40'0 0.0
2019-Feb-15 10:25N 52°28' E 004°40'0 0.0
2019-Feb-15 09:58N 52°28' E 004°40'0 0.0
2019-Feb-15 09:28N 52°28' E 004°40'0 0.0
2019-Feb-15 08:58N 52°28' E 004°40'0 0.0
2019-Feb-15 08:28N 52°28' E 004°40'0 0.0
2019-Feb-15 07:58N 52°28' E 004°40'0 0.0
2019-Feb-15 07:28N 52°28' E 004°40'0 0.0
2019-Feb-15 06:58N 52°28' E 004°40'0 0.0
2019-Feb-15 06:28N 52°28' E 004°40'0 0.0
2019-Feb-15 05:58N 52°28' E 004°40'0 0.0
2019-Feb-15 05:28N 52°28' E 004°40'0 0.0
2019-Feb-15 04:58N 52°28' E 004°40'0 0.0
2019-Feb-15 04:28N 52°28' E 004°40'0 0.0
2019-Feb-15 03:58N 52°28' E 004°40'0 0.0
2019-Feb-15 03:28N 52°28' E 004°40'0 0.0
2019-Feb-15 02:58N 52°28' E 004°40'0 0.0
2019-Feb-15 02:28N 52°28' E 004°40'0 0.0
2019-Feb-15 01:58N 52°28' E 004°40'0 0.0
2019-Feb-15 01:28N 52°28' E 004°40'0 0.0
2019-Feb-15 00:55N 52°28' E 004°40'0 0.0
2019-Feb-15 00:28N 52°28' E 004°40'0 0.0
2019-Feb-14 23:58N 52°28' E 004°40'0 0.0
2019-Feb-14 23:28N 52°28' E 004°40'0 0.0
2019-Feb-14 22:58N 52°28' E 004°40'0 0.0
2019-Feb-14 22:28N 52°28' E 004°40'0 0.0
2019-Feb-14 21:58N 52°28' E 004°40'0 0.0
2019-Feb-14 21:25N 52°28' E 004°40'0 0.0
2019-Feb-14 20:58N 52°28' E 004°40'0 0.0
2019-Feb-14 20:28N 52°28' E 004°40'0 0.0
2019-Feb-14 19:58N 52°28' E 004°40'0 0.0
2019-Feb-14 19:28N 52°28' E 004°40'0 0.0
2019-Feb-14 18:58N 52°28' E 004°40'0 0.0
2019-Feb-14 18:28N 52°28' E 004°40'0 0.0
2019-Feb-14 17:58N 52°28' E 004°40'0 0.0
2019-Feb-14 17:28N 52°28' E 004°40'0 0.0
2019-Feb-14 16:58N 52°28' E 004°40'0 0.0
2019-Feb-14 16:28N 52°28' E 004°40'0 0.0
2019-Feb-14 15:58N 52°28' E 004°40'0 0.0
2019-Feb-14 15:25N 52°28' E 004°40'0 0.0
2019-Feb-14 14:58N 52°28' E 004°40'0 0.0
2019-Feb-14 14:28N 52°28' E 004°40'0 0.0
2019-Feb-14 13:58N 52°28' E 004°40'0 0.0
2019-Feb-14 13:25N 52°28' E 004°40'0 0.0
2019-Feb-14 12:58N 52°28' E 004°40'0 0.0
2019-Feb-14 12:25N 52°28' E 004°40'0 0.0
2019-Feb-14 11:55N 52°28' E 004°40'0 0.0
2019-Feb-14 11:25N 52°28' E 004°40'0 0.0
2019-Feb-14 10:55N 52°28' E 004°40'0 0.0
2019-Feb-14 10:28N 52°28' E 004°40'0 0.0
2019-Feb-14 09:58N 52°28' E 004°40'0 0.0
2019-Feb-14 09:28N 52°28' E 004°40'0 0.0
2019-Feb-14 08:58N 52°28' E 004°40'0 0.0
2019-Feb-14 08:28N 52°28' E 004°40'0 0.0
2019-Feb-14 07:58N 52°28' E 004°40'0 0.0
2019-Feb-14 07:28N 52°28' E 004°40'0 0.0
2019-Feb-14 06:55N 52°28' E 004°40'0 0.0
2019-Feb-14 06:28N 52°28' E 004°40'0 0.0
2019-Feb-14 05:58N 52°28' E 004°40'0 0.0
2019-Feb-14 05:28N 52°28' E 004°40'0 0.0
2019-Feb-14 04:58N 52°28' E 004°40'0 0.0
2019-Feb-14 04:28N 52°28' E 004°40'0 0.0
2019-Feb-14 03:55N 52°28' E 004°40'0 0.0
2019-Feb-14 02:55N 52°28' E 004°40'0 0.0
2019-Feb-14 02:28N 52°28' E 004°40'0 0.0
2019-Feb-14 01:58N 52°28' E 004°40'0 0.0
2019-Feb-14 01:25N 52°28' E 004°40'0 0.0
2019-Feb-14 00:58N 52°28' E 004°40'0 0.0
2019-Feb-14 00:28N 52°28' E 004°40'0 0.0
2019-Feb-13 23:58N 52°28' E 004°40'0 0.0
2019-Feb-13 23:28N 52°28' E 004°40'0 0.0
2019-Feb-13 22:55N 52°28' E 004°40'0 0.0
2019-Feb-13 22:28N 52°28' E 004°40'0 0.0
2019-Feb-13 21:58N 52°28' E 004°40'0 0.0
2019-Feb-13 21:28N 52°28' E 004°40'0 0.0
2019-Feb-13 20:58N 52°28' E 004°40'0 0.0
2019-Feb-13 20:25N 52°28' E 004°40'0 0.0
2019-Feb-13 19:55N 52°28' E 004°40'0 0.0
2019-Feb-13 19:28N 52°28' E 004°40'0 0.0
2019-Feb-13 18:58N 52°28' E 004°40'0 0.0
2019-Feb-13 18:28N 52°28' E 004°40'0 0.0
2019-Feb-13 17:58N 52°28' E 004°40'0 0.0
2019-Feb-13 17:28N 52°28' E 004°40'0 0.0
2019-Feb-13 16:58N 52°28' E 004°40'0 0.0
2019-Feb-13 16:28N 52°28' E 004°40'  
Track history (hours):
 
Tides and Currents Weather Stations Pressure Air Temp Water Temp Dewpoint Dewpoint Depression Visibility Wind Speed Wind Dir Waves Ship Positions

Riverdance

Operator: Crescent Marine Services Ltd

Last reported at 2019-Feb-23 16:19 UTC. Time now 2019-Feb-23 16:59 UTC.
Position N 53°24' E 003°12'.

Length 72 m; draft 5.8 m.

Type: Other ship. MMSI: 311000463.

Date/timePositionNaut miles runAvg speedWind from/ knotsBaromVisibWave heightAir tempDewpointWater temp
2019-Feb-23 16:19N 53°24' E 003°12'412.0
2019-Feb-23 15:58N 53°20' E 003°15'1011.4
2019-Feb-23 15:06N 53°11' E 003°23'411.7
2019-Feb-23 14:45N 53°09' E 003°29'411.1
2019-Feb-23 14:22N 53°07' E 003°35'810.7
2019-Feb-23 13:39N 53°00' E 003°40'210.5
2019-Feb-23 13:30N 52°59' E 003°41'510.3
2019-Feb-23 13:00N 52°54' E 003°44'610.4
2019-Feb-23 12:25N 52°49' E 003°51'410.3
2019-Feb-23 12:00N 52°46' E 003°55'510.1
2019-Feb-23 11:30N 52°42' E 003°60'5 9.8
2019-Feb-23 11:00N 52°37' E 004°04'5 9.8
2019-Feb-23 10:30N 52°33' E 004°08'510.3
2019-Feb-23 10:00N 52°31' E 004°15'510.1
2019-Feb-23 09:30N 52°29' E 004°23'510.3
2019-Feb-23 09:01N 52°28' E 004°31'3 5.5
2019-Feb-23 08:31N 52°28' E 004°36'0 0.4
2019-Feb-23 08:01N 52°28' E 004°36'2 3.7
2019-Feb-23 07:30N 52°28' E 004°39'1 1.4
2019-Feb-23 06:58N 52°28' E 004°40'0 0.0
2019-Feb-23 06:28N 52°28' E 004°40'0 0.0
2019-Feb-23 05:58N 52°28' E 004°40'0 0.0
2019-Feb-23 05:28N 52°28' E 004°40'0 0.0
2019-Feb-23 04:58N 52°28' E 004°40'0 0.0
2019-Feb-23 04:28N 52°28' E 004°40'0 0.0
2019-Feb-23 03:58N 52°28' E 004°40'0 0.0
2019-Feb-23 03:28N 52°28' E 004°40'0 0.0
2019-Feb-23 02:58N 52°28' E 004°40'0 0.0
2019-Feb-23 02:28N 52°28' E 004°40'0 0.0
2019-Feb-23 01:58N 52°28' E 004°40'0 0.0
2019-Feb-23 01:28N 52°28' E 004°40'0 0.0
2019-Feb-23 00:58N 52°28' E 004°40'0 0.0
2019-Feb-23 00:28N 52°28' E 004°40'0 0.0
2019-Feb-22 23:58N 52°28' E 004°40'0 0.0
2019-Feb-22 23:28N 52°28' E 004°40'0 0.0
2019-Feb-22 22:58N 52°28' E 004°40'0 0.0
2019-Feb-22 22:28N 52°28' E 004°40'0 0.0
2019-Feb-22 21:58N 52°28' E 004°40'0 0.0
2019-Feb-22 21:28N 52°28' E 004°40'0 0.0
2019-Feb-22 20:58N 52°28' E 004°40'0 0.0
2019-Feb-22 20:28N 52°28' E 004°40'0 0.0
2019-Feb-22 19:58N 52°28' E 004°40'0 0.0
2019-Feb-22 19:28N 52°28' E 004°40'0 0.0
2019-Feb-22 18:58N 52°28' E 004°40'0 0.0
2019-Feb-22 18:28N 52°28' E 004°40'0 0.0
2019-Feb-22 17:58N 52°28' E 004°40'0 0.0
2019-Feb-22 17:28N 52°28' E 004°40'0 0.0
2019-Feb-22 16:58N 52°28' E 004°40'0 0.0
2019-Feb-22 16:28N 52°28' E 004°40'0 0.0
2019-Feb-22 15:58N 52°28' E 004°40'0 0.0
2019-Feb-22 15:28N 52°28' E 004°40'0 0.0
2019-Feb-22 14:58N 52°28' E 004°40'0 0.0
2019-Feb-22 14:28N 52°28' E 004°40'0 0.0
2019-Feb-22 13:58N 52°28' E 004°40'0 0.0
2019-Feb-22 13:28N 52°28' E 004°40'0 0.0
2019-Feb-22 12:58N 52°28' E 004°40'0 0.0
2019-Feb-22 12:28N 52°28' E 004°40'0 0.0
2019-Feb-22 11:55N 52°28' E 004°40'0 0.0
2019-Feb-22 11:28N 52°28' E 004°40'0 0.0
2019-Feb-22 10:58N 52°28' E 004°40'0 0.0
2019-Feb-22 10:28N 52°28' E 004°40'0 0.0
2019-Feb-22 09:58N 52°28' E 004°40'0 0.0
2019-Feb-22 09:28N 52°28' E 004°40'0 0.0
2019-Feb-22 08:58N 52°28' E 004°40'0 0.0
2019-Feb-22 08:28N 52°28' E 004°40'0 0.0
2019-Feb-22 07:58N 52°28' E 004°40'0 0.0
2019-Feb-22 07:28N 52°28' E 004°40'0 0.0
2019-Feb-22 06:58N 52°28' E 004°40'0 0.0
2019-Feb-22 06:28N 52°28' E 004°40'0 0.0
2019-Feb-22 05:58N 52°28' E 004°40'0 0.0
2019-Feb-22 05:28N 52°28' E 004°40'0 0.0
2019-Feb-22 04:58N 52°28' E 004°40'0 0.0
2019-Feb-22 04:28N 52°28' E 004°40'0 0.0
2019-Feb-22 03:58N 52°28' E 004°40'0 0.0
2019-Feb-22 03:28N 52°28' E 004°40'0 0.0
2019-Feb-22 02:58N 52°28' E 004°40'0 0.0
2019-Feb-22 02:28N 52°28' E 004°40'0 0.0
2019-Feb-22 01:58N 52°28' E 004°40'0 0.0
2019-Feb-22 01:28N 52°28' E 004°40'0 0.0
2019-Feb-22 00:58N 52°28' E 004°40'0 0.0
2019-Feb-22 00:28N 52°28' E 004°40'0 0.0
2019-Feb-21 23:58N 52°28' E 004°40'0 0.0
2019-Feb-21 23:25N 52°28' E 004°40'0 0.0
2019-Feb-21 22:58N 52°28' E 004°40'0 0.0
2019-Feb-21 22:28N 52°28' E 004°40'0 0.0
2019-Feb-21 21:58N 52°28' E 004°40'0 0.0
2019-Feb-21 21:28N 52°28' E 004°40'0 0.0
2019-Feb-21 20:58N 52°28' E 004°40'0 0.0
2019-Feb-21 20:28N 52°28' E 004°40'0 0.0
2019-Feb-21 19:55N 52°28' E 004°40'0 0.0
2019-Feb-21 19:28N 52°28' E 004°40'0 0.0
2019-Feb-21 18:58N 52°28' E 004°40'0 0.0
2019-Feb-21 18:28N 52°28' E 004°40'0 0.0
2019-Feb-21 17:58N 52°28' E 004°40'0 0.0
2019-Feb-21 17:28N 52°28' E 004°40'0 0.0
2019-Feb-21 16:58N 52°28' E 004°40'0 0.0
2019-Feb-21 16:28N 52°28' E 004°40'0 0.0
2019-Feb-21 15:55N 52°28' E 004°40'0 0.0
2019-Feb-21 15:29N 52°28' E 004°40'0 0.0
2019-Feb-21 14:58N 52°28' E 004°40'0 0.0
2019-Feb-21 14:25N 52°28' E 004°40'0 0.0
2019-Feb-21 13:58N 52°28' E 004°40'0 0.0
2019-Feb-21 13:28N 52°28' E 004°40'0 0.0
2019-Feb-21 12:58N 52°28' E 004°40'0 0.0
2019-Feb-21 12:28N 52°28' E 004°40'0 0.0
2019-Feb-21 11:58N 52°28' E 004°40'0 0.0
2019-Feb-21 11:28N 52°28' E 004°40'0 0.0
2019-Feb-21 10:58N 52°28' E 004°40'0 0.0
2019-Feb-21 10:28N 52°28' E 004°40'0 0.0
2019-Feb-21 09:58N 52°28' E 004°40'0 0.0
2019-Feb-21 09:28N 52°28' E 004°40'0 0.0
2019-Feb-21 08:58N 52°28' E 004°40'0 0.0
2019-Feb-21 08:28N 52°28' E 004°40'0 0.0
2019-Feb-21 07:59N 52°28' E 004°40'0 0.0
2019-Feb-21 07:25N 52°28' E 004°40'0 0.0
2019-Feb-21 06:58N 52°28' E 004°40'0 0.0
2019-Feb-21 06:28N 52°28' E 004°40'0 0.0
2019-Feb-21 05:58N 52°28' E 004°40'0 0.0
2019-Feb-21 05:28N 52°28' E 004°40'0 0.0
2019-Feb-21 04:58N 52°28' E 004°40'0 0.0
2019-Feb-21 04:28N 52°28' E 004°40'0 0.0
2019-Feb-21 03:55N 52°28' E 004°40'0 0.0
2019-Feb-21 03:28N 52°28' E 004°40'0 0.0
2019-Feb-21 02:58N 52°28' E 004°40'0 0.0
2019-Feb-21 02:28N 52°28' E 004°40'0 0.0
2019-Feb-21 01:58N 52°28' E 004°40'0 0.0
2019-Feb-21 01:22N 52°28' E 004°40'0 0.0
2019-Feb-21 00:58N 52°28' E 004°40'0 0.0
2019-Feb-21 00:28N 52°28' E 004°40'0 0.0
2019-Feb-20 23:58N 52°28' E 004°40'0 0.0
2019-Feb-20 23:28N 52°28' E 004°40'0 0.0
2019-Feb-20 22:58N 52°28' E 004°40'0 0.0
2019-Feb-20 22:28N 52°28' E 004°40'0 0.0
2019-Feb-20 21:58N 52°28' E 004°40'0 0.0
2019-Feb-20 21:28N 52°28' E 004°40'0 0.0
2019-Feb-20 20:58N 52°28' E 004°40'0 0.0
2019-Feb-20 20:28N 52°28' E 004°40'0 0.0
2019-Feb-20 19:58N 52°28' E 004°40'0 0.0
2019-Feb-20 19:28N 52°28' E 004°40'0 0.0
2019-Feb-20 18:58N 52°28' E 004°40'0 0.0
2019-Feb-20 18:25N 52°28' E 004°40'0 0.0
2019-Feb-20 17:55N 52°28' E 004°40'0 0.0
2019-Feb-20 17:28N 52°28' E 004°40'0 0.0
2019-Feb-20 16:58N 52°28' E 004°40'0 0.0
2019-Feb-20 16:28N 52°28' E 004°40'0 0.0
2019-Feb-20 15:59N 52°28' E 004°40'0 0.0
2019-Feb-20 15:28N 52°28' E 004°40'0 0.0
2019-Feb-20 14:58N 52°28' E 004°40'0 0.0
2019-Feb-20 14:22N 52°28' E 004°40'0 0.0
2019-Feb-20 13:58N 52°28' E 004°40'0 0.0
2019-Feb-20 13:25N 52°28' E 004°40'0 0.0
2019-Feb-20 12:58N 52°28' E 004°40'0 0.0
2019-Feb-20 12:28N 52°28' E 004°40'0 0.0
2019-Feb-20 11:58N 52°28' E 004°40'0 0.0
2019-Feb-20 11:28N 52°28' E 004°40'0 0.0
2019-Feb-20 10:59N 52°28' E 004°40'0 0.0
2019-Feb-20 10:28N 52°28' E 004°40'0 0.0
2019-Feb-20 09:58N 52°28' E 004°40'0 0.0
2019-Feb-20 09:28N 52°28' E 004°40'0 0.0
2019-Feb-20 08:58N 52°28' E 004°40'0 0.0
2019-Feb-20 08:28N 52°28' E 004°40'0 0.0
2019-Feb-20 07:58N 52°28' E 004°40'0 0.0
2019-Feb-20 07:28N 52°28' E 004°40'0 0.0
2019-Feb-20 06:58N 52°28' E 004°40'0 0.0
2019-Feb-20 06:28N 52°28' E 004°40'0 0.0
2019-Feb-20 05:55N 52°28' E 004°40'0 0.0
2019-Feb-20 05:28N 52°28' E 004°40'0 0.0
2019-Feb-20 04:58N 52°28' E 004°40'0 0.0
2019-Feb-20 04:28N 52°28' E 004°40'0 0.0
2019-Feb-20 03:58N 52°28' E 004°40'0 0.0
2019-Feb-20 02:58N 52°28' E 004°40'0 0.0
2019-Feb-20 02:28N 52°28' E 004°40'0 0.0
2019-Feb-20 01:58N 52°28' E 004°40'0 0.0
2019-Feb-20 01:28N 52°28' E 004°40'0 0.0
2019-Feb-20 00:58N 52°28' E 004°40'0 0.0
2019-Feb-20 00:28N 52°28' E 004°40'0 0.0
2019-Feb-19 23:58N 52°28' E 004°40'0 0.0
2019-Feb-19 23:28N 52°28' E 004°40'0 0.0
2019-Feb-19 22:58N 52°28' E 004°40'0 0.0
2019-Feb-19 22:28N 52°28' E 004°40'0 0.0
2019-Feb-19 21:58N 52°28' E 004°40'0 0.0
2019-Feb-19 21:28N 52°28' E 004°40'0 0.0
2019-Feb-19 20:58N 52°28' E 004°40'0 0.0
2019-Feb-19 20:28N 52°28' E 004°40'0 0.0
2019-Feb-19 19:58N 52°28' E 004°40'0 0.0
2019-Feb-19 19:28N 52°28' E 004°40'0 0.0
2019-Feb-19 18:58N 52°28' E 004°40'0 0.0
2019-Feb-19 18:28N 52°28' E 004°40'0 0.0
2019-Feb-19 17:58N 52°28' E 004°40'0 0.0
2019-Feb-19 17:28N 52°28' E 004°40'0 0.0
2019-Feb-19 16:58N 52°28' E 004°40'0 0.0
2019-Feb-19 16:28N 52°28' E 004°40'0 0.0
2019-Feb-19 15:58N 52°28' E 004°40'0 0.0
2019-Feb-19 15:28N 52°28' E 004°40'0 0.0
2019-Feb-19 14:58N 52°28' E 004°40'0 0.0
2019-Feb-19 14:28N 52°28' E 004°40'0 0.0
2019-Feb-19 13:52N 52°28' E 004°40'0 0.0
2019-Feb-19 13:28N 52°28' E 004°40'0 0.0
2019-Feb-19 12:58N 52°28' E 004°40'0 0.0
2019-Feb-19 12:28N 52°28' E 004°40'0 0.0
2019-Feb-19 11:58N 52°28' E 004°40'0 0.0
2019-Feb-19 11:28N 52°28' E 004°40'0 0.0
2019-Feb-19 10:52N 52°28' E 004°40'0 0.0
2019-Feb-19 10:28N 52°28' E 004°40'0 0.0
2019-Feb-19 09:58N 52°28' E 004°40'0 0.0
2019-Feb-19 09:28N 52°28' E 004°40'0 0.0
2019-Feb-19 08:58N 52°28' E 004°40'0 0.0
2019-Feb-19 08:28N 52°28' E 004°40'0 0.0
2019-Feb-19 07:58N 52°28' E 004°40'0 0.0
2019-Feb-19 07:25N 52°28' E 004°40'0 0.0
2019-Feb-19 06:58N 52°28' E 004°40'0 0.0
2019-Feb-19 06:28N 52°28' E 004°40'0 0.0
2019-Feb-19 05:58N 52°28' E 004°40'0 0.0
2019-Feb-19 05:28N 52°28' E 004°40'0 0.0
2019-Feb-19 04:58N 52°28' E 004°40'0 0.0
2019-Feb-19 04:28N 52°28' E 004°40'0 0.0
2019-Feb-19 03:58N 52°28' E 004°40'0 0.0
2019-Feb-19 03:28N 52°28' E 004°40'0 0.0
2019-Feb-19 02:58N 52°28' E 004°40'0 0.0
2019-Feb-19 02:28N 52°28' E 004°40'0 0.0
2019-Feb-19 01:58N 52°28' E 004°40'0 0.0
2019-Feb-19 01:25N 52°28' E 004°40'0 0.0
2019-Feb-19 00:58N 52°28' E 004°40'0 0.0
2019-Feb-19 00:28N 52°28' E 004°40'0 0.0
2019-Feb-18 23:58N 52°28' E 004°40'0 0.0
2019-Feb-18 23:28N 52°28' E 004°40'0 0.0
2019-Feb-18 22:58N 52°28' E 004°40'0 0.0
2019-Feb-18 22:28N 52°28' E 004°40'0 0.0
2019-Feb-18 21:55N 52°28' E 004°40'0 0.0
2019-Feb-18 21:28N 52°28' E 004°40'0 0.0
2019-Feb-18 20:58N 52°28' E 004°40'0 0.0
2019-Feb-18 20:28N 52°28' E 004°40'0 0.0
2019-Feb-18 19:58N 52°28' E 004°40'0 0.0
2019-Feb-18 19:28N 52°28' E 004°40'0 0.0
2019-Feb-18 18:55N 52°28' E 004°40'0 0.0
2019-Feb-18 18:28N 52°28' E 004°40'0 0.0
2019-Feb-18 17:55N 52°28' E 004°40'0 0.0
2019-Feb-18 17:25N 52°28' E 004°40'0 0.0
2019-Feb-18 16:58N 52°28' E 004°40'0 0.0
2019-Feb-18 16:28N 52°28' E 004°40'0 0.0
2019-Feb-18 15:58N 52°28' E 004°40'0 0.0
2019-Feb-18 15:28N 52°28' E 004°40'0 0.0
2019-Feb-18 14:58N 52°28' E 004°40'0 0.0
2019-Feb-18 14:28N 52°28' E 004°40'0 0.0
2019-Feb-18 13:58N 52°28' E 004°40'0 0.0
2019-Feb-18 13:28N 52°28' E 004°40'0 0.0
2019-Feb-18 12:58N 52°28' E 004°40'0 0.0
2019-Feb-18 12:25N 52°28' E 004°40'0 0.0
2019-Feb-18 11:58N 52°28' E 004°40'0 0.0
2019-Feb-18 11:28N 52°28' E 004°40'0 0.0
2019-Feb-18 10:58N 52°28' E 004°40'0 0.0
2019-Feb-18 10:28N 52°28' E 004°40'0 0.0
2019-Feb-18 09:55N 52°28' E 004°40'0 0.0
2019-Feb-18 09:28N 52°28' E 004°40'0 0.0
2019-Feb-18 08:58N 52°28' E 004°40'0 0.0
2019-Feb-18 08:25N 52°28' E 004°40'0 0.0
2019-Feb-18 07:58N 52°28' E 004°40'0 0.0
2019-Feb-18 07:25N 52°28' E 004°40'0 0.0
2019-Feb-18 06:55N 52°28' E 004°40'0 0.0
2019-Feb-18 06:28N 52°28' E 004°40'0 0.0
2019-Feb-18 05:58N 52°28' E 004°40'0 0.0
2019-Feb-18 05:28N 52°28' E 004°40'0 0.0
2019-Feb-18 04:58N 52°28' E 004°40'0 0.0
2019-Feb-18 04:28N 52°28' E 004°40'0 0.0
2019-Feb-18 03:58N 52°28' E 004°40'0 0.0
2019-Feb-18 03:28N 52°28' E 004°40'0 0.0
2019-Feb-18 02:58N 52°28' E 004°40'0 0.0
2019-Feb-18 02:28N 52°28' E 004°40'0 0.0
2019-Feb-18 01:58N 52°28' E 004°40'0 0.0
2019-Feb-18 01:28N 52°28' E 004°40'0 0.0
2019-Feb-18 00:58N 52°28' E 004°40'0 0.0
2019-Feb-18 00:28N 52°28' E 004°40'0 0.0
2019-Feb-17 23:58N 52°28' E 004°40'0 0.0
2019-Feb-17 23:28N 52°28' E 004°40'0 0.0
2019-Feb-17 22:58N 52°28' E 004°40'0 0.0
2019-Feb-17 22:28N 52°28' E 004°40'0 0.0
2019-Feb-17 21:58N 52°28' E 004°40'0 0.0
2019-Feb-17 21:28N 52°28' E 004°40'0 0.0
2019-Feb-17 20:58N 52°28' E 004°40'0 0.0
2019-Feb-17 20:28N 52°28' E 004°40'0 0.0
2019-Feb-17 19:58N 52°28' E 004°40'0 0.0
2019-Feb-17 19:28N 52°28' E 004°40'0 0.0
2019-Feb-17 18:58N 52°28' E 004°40'0 0.0
2019-Feb-17 18:28N 52°28' E 004°40'0 0.0
2019-Feb-17 17:58N 52°28' E 004°40'0 0.0
2019-Feb-17 17:28N 52°28' E 004°40'0 0.0
2019-Feb-17 16:58N 52°28' E 004°40'0 0.0
2019-Feb-17 16:28N 52°28' E 004°40'0 0.0
2019-Feb-17 15:58N 52°28' E 004°40'0 0.0
2019-Feb-17 15:28N 52°28' E 004°40'0 0.0
2019-Feb-17 14:58N 52°28' E 004°40'0 0.0
2019-Feb-17 14:28N 52°28' E 004°40'0 0.0
2019-Feb-17 13:58N 52°28' E 004°40'0 0.0
2019-Feb-17 13:28N 52°28' E 004°40'0 0.0
2019-Feb-17 12:58N 52°28' E 004°40'0 0.0
2019-Feb-17 12:28N 52°28' E 004°40'0 0.0
2019-Feb-17 11:58N 52°28' E 004°40'0 0.0
2019-Feb-17 11:28N 52°28' E 004°40'0 0.0
2019-Feb-17 10:58N 52°28' E 004°40'0 0.0
2019-Feb-17 10:25N 52°28' E 004°40'0 0.0
2019-Feb-17 09:58N 52°28' E 004°40'0 0.0
2019-Feb-17 09:28N 52°28' E 004°40'0 0.0
2019-Feb-17 08:58N 52°28' E 004°40'0 0.0
2019-Feb-17 08:25N 52°28' E 004°40'0 0.0
2019-Feb-17 07:58N 52°28' E 004°40'0 0.0
2019-Feb-17 07:28N 52°28' E 004°40'0 0.0
2019-Feb-17 06:58N 52°28' E 004°40'0 0.0
2019-Feb-17 06:28N 52°28' E 004°40'0 0.0
2019-Feb-17 05:58N 52°28' E 004°40'0 0.0
2019-Feb-17 05:28N 52°28' E 004°40'0 0.0
2019-Feb-17 04:58N 52°28' E 004°40'0 0.0
2019-Feb-17 04:28N 52°28' E 004°40'0 0.0
2019-Feb-17 03:58N 52°28' E 004°40'0 0.0
2019-Feb-17 03:28N 52°28' E 004°40'0 0.0
2019-Feb-17 02:58N 52°28' E 004°40'0 0.0
2019-Feb-17 02:28N 52°28' E 004°40'0 0.0
2019-Feb-17 01:58N 52°28' E 004°40'0 0.0
2019-Feb-17 01:28N 52°28' E 004°40'0 0.0
2019-Feb-17 00:58N 52°28' E 004°40'0 0.0
2019-Feb-17 00:28N 52°28' E 004°40'0 0.0
2019-Feb-16 23:58N 52°28' E 004°40'0 0.0
2019-Feb-16 23:28N 52°28' E 004°40'0 0.0
2019-Feb-16 22:58N 52°28' E 004°40'0 0.0
2019-Feb-16 22:28N 52°28' E 004°40'0 0.0
2019-Feb-16 21:58N 52°28' E 004°40'0 0.0
2019-Feb-16 21:28N 52°28' E 004°40'0 0.0
2019-Feb-16 20:58N 52°28' E 004°40'0 0.0
2019-Feb-16 20:28N 52°28' E 004°40'0 0.0
2019-Feb-16 19:58N 52°28' E 004°40'0 0.0
2019-Feb-16 19:28N 52°28' E 004°40'0 0.0
2019-Feb-16 18:58N 52°28' E 004°40'0 0.0
2019-Feb-16 18:28N 52°28' E 004°40'0 0.0
2019-Feb-16 17:58N 52°28' E 004°40'0 0.0
2019-Feb-16 17:25N 52°28' E 004°40'0 0.0
2019-Feb-16 16:58N 52°28' E 004°40'0 0.0
2019-Feb-16 16:28N 52°28' E 004°40'0 0.0
2019-Feb-16 15:58N 52°28' E 004°40'0 0.0
2019-Feb-16 15:28N 52°28' E 004°40'0 0.0
2019-Feb-16 14:58N 52°28' E 004°40'0 0.0
2019-Feb-16 14:28N 52°28' E 004°40'0 0.0
2019-Feb-16 13:55N 52°28' E 004°40'0 0.0
2019-Feb-16 13:28N 52°28' E 004°40'0 0.0
2019-Feb-16 12:58N 52°28' E 004°40'0 0.0
2019-Feb-16 12:28N 52°28' E 004°40'0 0.0
2019-Feb-16 11:58N 52°28' E 004°40'0 0.0
2019-Feb-16 11:28N 52°28' E 004°40'0 0.0
2019-Feb-16 10:58N 52°28' E 004°40'0 0.0
2019-Feb-16 10:28N 52°28' E 004°40'0 0.0
2019-Feb-16 09:58N 52°28' E 004°40'0 0.0
2019-Feb-16 09:28N 52°28' E 004°40'0 0.0
2019-Feb-16 08:58N 52°28' E 004°40'0 0.0
2019-Feb-16 08:28N 52°28' E 004°40'0 0.0
2019-Feb-16 07:58N 52°28' E 004°40'0 0.0
2019-Feb-16 07:28N 52°28' E 004°40'0 0.0
2019-Feb-16 06:58N 52°28' E 004°40'0 0.0
2019-Feb-16 06:25N 52°28' E 004°40'0 0.0
2019-Feb-16 05:52N 52°28' E 004°40'0 0.0
2019-Feb-16 05:28N 52°28' E 004°40'0 0.0
2019-Feb-16 04:58N 52°28' E 004°40'0 0.0
2019-Feb-16 04:28N 52°28' E 004°40'0 0.0
2019-Feb-16 03:58N 52°28' E 004°40'0 0.0
2019-Feb-16 03:28N 52°28' E 004°40'0 0.0
2019-Feb-16 02:58N 52°28' E 004°40'0 0.0
2019-Feb-16 02:28N 52°28' E 004°40'0 0.0
2019-Feb-16 01:58N 52°28' E 004°40'0 0.0
2019-Feb-16 01:28N 52°28' E 004°40'0 0.0
2019-Feb-16 00:58N 52°28' E 004°40'0 0.0
2019-Feb-16 00:28N 52°28' E 004°40'0 0.0
2019-Feb-15 23:58N 52°28' E 004°40'0 0.0
2019-Feb-15 23:28N 52°28' E 004°40'0 0.0
2019-Feb-15 22:58N 52°28' E 004°40'0 0.0
2019-Feb-15 22:28N 52°28' E 004°40'0 0.0
2019-Feb-15 21:58N 52°28' E 004°40'0 0.0
2019-Feb-15 21:28N 52°28' E 004°40'0 0.0
2019-Feb-15 20:58N 52°28' E 004°40'0 0.0
2019-Feb-15 20:25N 52°28' E 004°40'0 0.0
2019-Feb-15 19:58N 52°28' E 004°40'0 0.0
2019-Feb-15 19:28N 52°28' E 004°40'0 0.0
2019-Feb-15 18:58N 52°28' E 004°40'0 0.0
2019-Feb-15 18:28N 52°28' E 004°40'0 0.0
2019-Feb-15 17:58N 52°28' E 004°40'0 0.0
2019-Feb-15 17:28N 52°28' E 004°40'0 0.0
2019-Feb-15 16:58N 52°28' E 004°40'0 0.0
2019-Feb-15 16:28N 52°28' E 004°40'0 0.0
2019-Feb-15 15:58N 52°28' E 004°40'0 0.0
2019-Feb-15 15:28N 52°28' E 004°40'0 0.0
2019-Feb-15 14:58N 52°28' E 004°40'0 0.0
2019-Feb-15 14:28N 52°28' E 004°40'0 0.0
2019-Feb-15 13:58N 52°28' E 004°40'0 0.0
2019-Feb-15 13:25N 52°28' E 004°40'0 0.0
2019-Feb-15 12:58N 52°28' E 004°40'0 0.0
2019-Feb-15 12:28N 52°28' E 004°40'0 0.0
2019-Feb-15 11:58N 52°28' E 004°40'0 0.0
2019-Feb-15 11:25N 52°28' E 004°40'0 0.0
2019-Feb-15 10:58N 52°28' E 004°40'0 0.0
2019-Feb-15 10:25N 52°28' E 004°40'0 0.0
2019-Feb-15 09:58N 52°28' E 004°40'0 0.0
2019-Feb-15 09:28N 52°28' E 004°40'0 0.0
2019-Feb-15 08:58N 52°28' E 004°40'0 0.0
2019-Feb-15 08:28N 52°28' E 004°40'0 0.0
2019-Feb-15 07:58N 52°28' E 004°40'0 0.0
2019-Feb-15 07:28N 52°28' E 004°40'0 0.0
2019-Feb-15 06:58N 52°28' E 004°40'0 0.0
2019-Feb-15 06:28N 52°28' E 004°40'0 0.0
2019-Feb-15 05:58N 52°28' E 004°40'0 0.0
2019-Feb-15 05:28N 52°28' E 004°40'0 0.0
2019-Feb-15 04:58N 52°28' E 004°40'0 0.0
2019-Feb-15 04:28N 52°28' E 004°40'0 0.0
2019-Feb-15 03:58N 52°28' E 004°40'0 0.0
2019-Feb-15 03:28N 52°28' E 004°40'0 0.0
2019-Feb-15 02:58N 52°28' E 004°40'0 0.0
2019-Feb-15 02:28N 52°28' E 004°40'0 0.0
2019-Feb-15 01:58N 52°28' E 004°40'0 0.0
2019-Feb-15 01:28N 52°28' E 004°40'0 0.0
2019-Feb-15 00:55N 52°28' E 004°40'0 0.0
2019-Feb-15 00:28N 52°28' E 004°40'0 0.0
2019-Feb-14 23:58N 52°28' E 004°40'0 0.0
2019-Feb-14 23:28N 52°28' E 004°40'0 0.0
2019-Feb-14 22:58N 52°28' E 004°40'0 0.0
2019-Feb-14 22:28N 52°28' E 004°40'0 0.0
2019-Feb-14 21:58N 52°28' E 004°40'0 0.0
2019-Feb-14 21:25N 52°28' E 004°40'0 0.0
2019-Feb-14 20:58N 52°28' E 004°40'0 0.0
2019-Feb-14 20:28N 52°28' E 004°40'0 0.0
2019-Feb-14 19:58N 52°28' E 004°40'0 0.0
2019-Feb-14 19:28N 52°28' E 004°40'0 0.0
2019-Feb-14 18:58N 52°28' E 004°40'0 0.0
2019-Feb-14 18:28N 52°28' E 004°40'0 0.0
2019-Feb-14 17:58N 52°28' E 004°40'0 0.0
2019-Feb-14 17:28N 52°28' E 004°40'0 0.0
2019-Feb-14 16:58N 52°28' E 004°40'0 0.0
2019-Feb-14 16:28N 52°28' E 004°40'0 0.0
2019-Feb-14 15:58N 52°28' E 004°40'0 0.0
2019-Feb-14 15:25N 52°28' E 004°40'0 0.0
2019-Feb-14 14:58N 52°28' E 004°40'0 0.0
2019-Feb-14 14:28N 52°28' E 004°40'0 0.0
2019-Feb-14 13:58N 52°28' E 004°40'0 0.0
2019-Feb-14 13:25N 52°28' E 004°40'0 0.0
2019-Feb-14 12:58N 52°28' E 004°40'0 0.0
2019-Feb-14 12:25N 52°28' E 004°40'0 0.0
2019-Feb-14 11:55N 52°28' E 004°40'0 0.0
2019-Feb-14 11:25N 52°28' E 004°40'0 0.0
2019-Feb-14 10:55N 52°28' E 004°40'0 0.0
2019-Feb-14 10:28N 52°28' E 004°40'0 0.0
2019-Feb-14 09:58N 52°28' E 004°40'0 0.0
2019-Feb-14 09:28N 52°28' E 004°40'0 0.0
2019-Feb-14 08:58N 52°28' E 004°40'0 0.0
2019-Feb-14 08:28N 52°28' E 004°40'0 0.0
2019-Feb-14 07:58N 52°28' E 004°40'0 0.0
2019-Feb-14 07:28N 52°28' E 004°40'0 0.0
2019-Feb-14 06:55N 52°28' E 004°40'0 0.0
2019-Feb-14 06:28N 52°28' E 004°40'0 0.0
2019-Feb-14 05:58N 52°28' E 004°40'0 0.0
2019-Feb-14 05:28N 52°28' E 004°40'0 0.0
2019-Feb-14 04:58N 52°28' E 004°40'0 0.0
2019-Feb-14 04:28N 52°28' E 004°40'0 0.0
2019-Feb-14 03:55N 52°28' E 004°40'0 0.0
2019-Feb-14 02:55N 52°28' E 004°40'0 0.0
2019-Feb-14 02:28N 52°28' E 004°40'0 0.0
2019-Feb-14 01:58N 52°28' E 004°40'0 0.0
2019-Feb-14 01:25N 52°28' E 004°40'0 0.0
2019-Feb-14 00:58N 52°28' E 004°40'0 0.0
2019-Feb-14 00:28N 52°28' E 004°40'0 0.0
2019-Feb-13 23:58N 52°28' E 004°40'0 0.0
2019-Feb-13 23:28N 52°28' E 004°40'0 0.0
2019-Feb-13 22:55N 52°28' E 004°40'0 0.0
2019-Feb-13 22:28N 52°28' E 004°40'0 0.0
2019-Feb-13 21:58N 52°28' E 004°40'0 0.0
2019-Feb-13 21:28N 52°28' E 004°40'0 0.0
2019-Feb-13 20:58N 52°28' E 004°40'0 0.0
2019-Feb-13 20:25N 52°28' E 004°40'0 0.0
2019-Feb-13 19:55N 52°28' E 004°40'0 0.0
2019-Feb-13 19:28N 52°28' E 004°40'0 0.0
2019-Feb-13 18:58N 52°28' E 004°40'0 0.0
2019-Feb-13 18:28N 52°28' E 004°40'0 0.0
2019-Feb-13 17:58N 52°28' E 004°40'0 0.0
2019-Feb-13 17:28N 52°28' E 004°40'0 0.0
2019-Feb-13 16:58N 52°28' E 004°40'0 0.0
2019-Feb-13 16:28N 52°28' E 004°40'  

Dump ship's entire track history